JBU1 KJFK-KFLL
Flight info
| Callsign | JBU1 |
|---|---|
| Flight time | N/A |
| Altitude | 36000 |
| Route | DCT WAVEY DCT EMJAY Q167 ZJAAY DCT KALDA Q161 CHIEZ Y291 MAJIK CUUDA3 |
| Aircraft | A321/M-SDE3FGHIRWY/LB1 |
Departure
| Time | 2026-05-08 20:01 |
|---|---|
| Airport | John F. Kennedy International Airport (KJFK) |
Arrival
| Time | N/A |
|---|---|
| Airport | Fort Lauderdale Hollywood International Airport (KFLL) |
| Time | Latitude | Longitude | Altitude | Speed | Heading |
|---|---|---|---|---|---|
| 2026-05-08 19:22 | 40.64642 | -73.77500 | 28 ft | 0 kts | 215° |
| 2026-05-08 19:51 | 40.64658 | -73.77485 | 28 ft | 4 kts | 215° |
| 2026-05-08 19:51 | 40.64679 | -73.77465 | 28 ft | 4 kts | 213° |
| 2026-05-08 19:51 | 40.64702 | -73.77455 | 28 ft | 4 kts | 166° |
| 2026-05-08 19:51 | 40.64721 | -73.77472 | 28 ft | 3 kts | 122° |
| 2026-05-08 19:52 | 40.64723 | -73.77476 | 28 ft | 0 kts | 121° |
| 2026-05-08 19:54 | 40.64723 | -73.77475 | 28 ft | 0 kts | 121° |
| 2026-05-08 19:55 | 40.64713 | -73.77454 | 28 ft | 7 kts | 121° |
| 2026-05-08 19:55 | 40.64701 | -73.77368 | 28 ft | 6 kts | 23° |
| 2026-05-08 19:56 | 40.64752 | -73.77373 | 28 ft | 10 kts | 10° |
| 2026-05-08 19:56 | 40.64772 | -73.77291 | 29 ft | 13 kts | 121° |
| 2026-05-08 19:56 | 40.64705 | -73.77148 | 28 ft | 24 kts | 130° |
| 2026-05-08 19:56 | 40.64551 | -73.77092 | 27 ft | 24 kts | 182° |
| 2026-05-08 19:57 | 40.64389 | -73.77134 | 28 ft | 26 kts | 216° |
| 2026-05-08 19:57 | 40.64211 | -73.77275 | 30 ft | 34 kts | 210° |
| 2026-05-08 19:57 | 40.64051 | -73.77378 | 27 ft | 18 kts | 163° |
| 2026-05-08 19:57 | 40.63994 | -73.77299 | 26 ft | 13 kts | 125° |
| 2026-05-08 19:58 | 40.63916 | -73.77169 | 28 ft | 24 kts | 126° |
| 2026-05-08 19:58 | 40.63792 | -73.76949 | 31 ft | 34 kts | 137° |
| 2026-05-08 19:58 | 40.63618 | -73.76919 | 31 ft | 27 kts | 181° |
| 2026-05-08 19:58 | 40.63430 | -73.76930 | 28 ft | 28 kts | 187° |
| 2026-05-08 19:59 | 40.63231 | -73.76951 | 28 ft | 26 kts | 179° |
| 2026-05-08 19:59 | 40.63126 | -73.76960 | 27 ft | 14 kts | 198° |
| 2026-05-08 19:59 | 40.63027 | -73.77026 | 26 ft | 15 kts | 212° |
| 2026-05-08 19:59 | 40.62919 | -73.77111 | 29 ft | 17 kts | 210° |
| 2026-05-08 20:00 | 40.62822 | -73.77235 | 29 ft | 23 kts | 295° |
| 2026-05-08 20:00 | 40.62972 | -73.77556 | 33 ft | 76 kts | 302° |
| 2026-05-08 20:00 | 40.63365 | -73.78426 | 28 ft | 145 kts | 300° |
| 2026-05-08 20:00 | 40.63919 | -73.79667 | 568 ft | 156 kts | 299° |
| 2026-05-08 20:01 | 40.64164 | -73.81045 | 1274 ft | 165 kts | 262° |
| 2026-05-08 20:01 | 40.63720 | -73.82510 | 1591 ft | 179 kts | 250° |
| 2026-05-08 20:01 | 40.63518 | -73.84165 | 1956 ft | 190 kts | 270° |
| 2026-05-08 20:01 | 40.63457 | -73.85964 | 2322 ft | 206 kts | 258° |
| 2026-05-08 20:02 | 40.62751 | -73.87710 | 2611 ft | 230 kts | 228° |
| 2026-05-08 20:02 | 40.61350 | -73.88868 | 3025 ft | 250 kts | 200° |
| 2026-05-08 20:02 | 40.59583 | -73.89040 | 3611 ft | 263 kts | 173° |
| 2026-05-08 20:02 | 40.57863 | -73.88126 | 4283 ft | 274 kts | 147° |
| 2026-05-08 20:03 | 40.56556 | -73.86285 | 4934 ft | 283 kts | 122° |
| 2026-05-08 20:03 | 40.55889 | -73.83834 | 5563 ft | 289 kts | 102° |
| 2026-05-08 20:03 | 40.55212 | -73.81338 | 6179 ft | 291 kts | 125° |
| 2026-05-08 20:03 | 40.53871 | -73.79361 | 6806 ft | 291 kts | 141° |
| 2026-05-08 20:04 | 40.52346 | -73.77598 | 7441 ft | 294 kts | 143° |
| 2026-05-08 20:04 | 40.50798 | -73.75814 | 8065 ft | 298 kts | 142° |
| 2026-05-08 20:04 | 40.49243 | -73.73990 | 8667 ft | 302 kts | 142° |
| 2026-05-08 20:04 | 40.47677 | -73.72128 | 9281 ft | 306 kts | 141° |
| 2026-05-08 20:05 | 40.46152 | -73.70146 | 9882 ft | 311 kts | 138° |
| 2026-05-08 20:05 | 40.44630 | -73.68074 | 10321 ft | 322 kts | 137° |
| 2026-05-08 20:05 | 40.43040 | -73.65907 | 10599 ft | 338 kts | 137° |
| 2026-05-08 20:05 | 40.41368 | -73.63637 | 10845 ft | 354 kts | 137° |
| 2026-05-08 20:06 | 40.39663 | -73.61327 | 11096 ft | 368 kts | 137° |
| 2026-05-08 20:06 | 40.37877 | -73.58911 | 11435 ft | 378 kts | 137° |
| 2026-05-08 20:06 | 40.36032 | -73.56422 | 11962 ft | 382 kts | 137° |
| 2026-05-08 20:06 | 40.34173 | -73.53911 | 12509 ft | 385 kts | 136° |
| 2026-05-08 20:07 | 40.32301 | -73.51380 | 13034 ft | 388 kts | 137° |
| 2026-05-08 20:07 | 40.30409 | -73.48830 | 13552 ft | 391 kts | 137° |
| 2026-05-08 20:07 | 40.28500 | -73.46261 | 14040 ft | 395 kts | 137° |
| 2026-05-08 20:07 | 40.26572 | -73.43664 | 14527 ft | 399 kts | 137° |
| 2026-05-08 20:08 | 40.24628 | -73.41045 | 15002 ft | 403 kts | 138° |
| 2026-05-08 20:08 | 40.22556 | -73.38584 | 15466 ft | 402 kts | 147° |
| 2026-05-08 20:08 | 40.20710 | -73.36825 | 15841 ft | 404 kts | 149° |
| 2026-05-08 20:09 | 40.18765 | -73.35025 | 16229 ft | 406 kts | 150° |
| 2026-05-08 20:09 | 40.16450 | -73.32885 | 16693 ft | 409 kts | 150° |
| 2026-05-08 20:09 | 40.14073 | -73.30861 | 17118 ft | 407 kts | 159° |
| 2026-05-08 20:10 | 40.11521 | -73.29663 | 17499 ft | 396 kts | 176° |
| 2026-05-08 20:10 | 40.08850 | -73.29478 | 17908 ft | 384 kts | 193° |
| 2026-05-08 20:10 | 40.06302 | -73.30266 | 18322 ft | 372 kts | 209° |
| 2026-05-08 20:10 | 40.04084 | -73.31877 | 18740 ft | 361 kts | 224° |
| 2026-05-08 20:11 | 40.02163 | -73.33980 | 19171 ft | 359 kts | 228° |
| 2026-05-08 20:11 | 40.01363 | -73.34911 | 19356 ft | 360 kts | 229° |
| 2026-05-08 20:12 | 40.00141 | -73.36333 | 19642 ft | 361 kts | 229° |
| 2026-05-08 20:12 | 39.99803 | -73.36726 | 19719 ft | 361 kts | 229° |
| 2026-05-08 20:12 | 39.98503 | -73.38220 | 20009 ft | 363 kts | 228° |
| 2026-05-08 20:12 | 39.96593 | -73.40389 | 20419 ft | 365 kts | 228° |
| 2026-05-08 20:13 | 39.94667 | -73.42558 | 20822 ft | 367 kts | 228° |
| 2026-05-08 20:13 | 39.92752 | -73.44701 | 21199 ft | 369 kts | 228° |
| 2026-05-08 20:13 | 39.90798 | -73.46880 | 21582 ft | 370 kts | 228° |
| 2026-05-08 20:13 | 39.88840 | -73.49067 | 21946 ft | 372 kts | 228° |
| 2026-05-08 20:14 | 39.86865 | -73.51264 | 22316 ft | 374 kts | 228° |
| 2026-05-08 20:14 | 39.84884 | -73.53466 | 22688 ft | 375 kts | 229° |
| 2026-05-08 20:14 | 39.82898 | -73.55675 | 23047 ft | 376 kts | 229° |
| 2026-05-08 20:14 | 39.80904 | -73.57899 | 23383 ft | 378 kts | 229° |
| 2026-05-08 20:15 | 39.78901 | -73.60129 | 23728 ft | 380 kts | 229° |
| 2026-05-08 20:15 | 39.76890 | -73.62367 | 24058 ft | 381 kts | 229° |
| 2026-05-08 20:15 | 39.74871 | -73.64613 | 24382 ft | 382 kts | 229° |
| 2026-05-08 20:15 | 39.72845 | -73.66863 | 24700 ft | 384 kts | 229° |
| 2026-05-08 20:16 | 39.70813 | -73.69120 | 25007 ft | 385 kts | 229° |
| 2026-05-08 20:16 | 39.68776 | -73.71381 | 25327 ft | 386 kts | 229° |
| 2026-05-08 20:16 | 39.66728 | -73.73647 | 25620 ft | 387 kts | 229° |
| 2026-05-08 20:16 | 39.64672 | -73.75917 | 25912 ft | 388 kts | 229° |
| 2026-05-08 20:17 | 39.62612 | -73.78195 | 26189 ft | 390 kts | 229° |
| 2026-05-08 20:17 | 39.60541 | -73.80479 | 26447 ft | 392 kts | 229° |
| 2026-05-08 20:17 | 39.58465 | -73.82772 | 26713 ft | 393 kts | 229° |
| 2026-05-08 20:17 | 39.56380 | -73.85073 | 26973 ft | 394 kts | 229° |
| 2026-05-08 20:18 | 39.54283 | -73.87386 | 27248 ft | 395 kts | 229° |
| 2026-05-08 20:18 | 39.52187 | -73.89691 | 27507 ft | 396 kts | 229° |
| 2026-05-08 20:18 | 39.50112 | -73.91974 | 27756 ft | 397 kts | 229° |
| 2026-05-08 20:18 | 39.48004 | -73.94293 | 27987 ft | 399 kts | 229° |
| 2026-05-08 20:19 | 39.45886 | -73.96621 | 28232 ft | 400 kts | 229° |
| 2026-05-08 20:19 | 39.43760 | -73.98953 | 28469 ft | 401 kts | 229° |
| 2026-05-08 20:19 | 39.41632 | -74.01288 | 28688 ft | 402 kts | 229° |
| 2026-05-08 20:19 | 39.39493 | -74.03630 | 28907 ft | 403 kts | 229° |
| 2026-05-08 20:20 | 39.37351 | -74.05973 | 29125 ft | 404 kts | 229° |
| 2026-05-08 20:20 | 39.35200 | -74.08323 | 29348 ft | 405 kts | 229° |
| 2026-05-08 20:20 | 39.33043 | -74.10678 | 29557 ft | 406 kts | 229° |
| 2026-05-08 20:20 | 39.30886 | -74.13031 | 29772 ft | 406 kts | 229° |
| 2026-05-08 20:21 | 39.28727 | -74.15381 | 30027 ft | 405 kts | 229° |
| 2026-05-08 20:21 | 39.26575 | -74.17724 | 30284 ft | 404 kts | 229° |
| 2026-05-08 20:21 | 39.24430 | -74.20059 | 30537 ft | 403 kts | 229° |
| 2026-05-08 20:21 | 39.22289 | -74.22388 | 30774 ft | 402 kts | 229° |
| 2026-05-08 20:22 | 39.20152 | -74.24710 | 31023 ft | 401 kts | 229° |
| 2026-05-08 20:22 | 39.18020 | -74.27025 | 31267 ft | 400 kts | 230° |
| 2026-05-08 20:22 | 39.15917 | -74.29308 | 31504 ft | 399 kts | 230° |
| 2026-05-08 20:22 | 39.14484 | -74.30861 | 31661 ft | 398 kts | 230° |
| 2026-05-08 20:23 | 39.11675 | -74.33904 | 31973 ft | 397 kts | 230° |
| 2026-05-08 20:23 | 39.09560 | -74.36191 | 32213 ft | 396 kts | 230° |
| 2026-05-08 20:23 | 39.07452 | -74.38470 | 32436 ft | 395 kts | 230° |
| 2026-05-08 20:23 | 39.05349 | -74.40744 | 32662 ft | 394 kts | 230° |
| 2026-05-08 20:24 | 39.03963 | -74.42241 | 32807 ft | 393 kts | 230° |
| 2026-05-08 20:24 | 39.01865 | -74.44503 | 33012 ft | 393 kts | 230° |
| 2026-05-08 20:24 | 38.99770 | -74.46758 | 33219 ft | 392 kts | 230° |
| 2026-05-08 20:24 | 38.97689 | -74.49003 | 33430 ft | 391 kts | 230° |
| 2026-05-08 20:25 | 38.95599 | -74.51251 | 33630 ft | 390 kts | 231° |
| 2026-05-08 20:25 | 38.93548 | -74.53511 | 33796 ft | 387 kts | 232° |
| 2026-05-08 20:25 | 38.91560 | -74.55834 | 33960 ft | 386 kts | 233° |
| 2026-05-08 20:25 | 38.89579 | -74.58159 | 34143 ft | 385 kts | 233° |
| 2026-05-08 20:26 | 38.87596 | -74.60482 | 34316 ft | 385 kts | 233° |
| 2026-05-08 20:26 | 38.85623 | -74.62794 | 34480 ft | 384 kts | 233° |
| 2026-05-08 20:26 | 38.83644 | -74.65109 | 34623 ft | 384 kts | 233° |
| 2026-05-08 20:26 | 38.81668 | -74.67417 | 34757 ft | 384 kts | 233° |
| 2026-05-08 20:27 | 38.79716 | -74.69694 | 34918 ft | 384 kts | 233° |
| 2026-05-08 20:27 | 38.77752 | -74.71983 | 35067 ft | 383 kts | 233° |
| 2026-05-08 20:27 | 38.75782 | -74.74280 | 35206 ft | 383 kts | 233° |
| 2026-05-08 20:27 | 38.73744 | -74.76511 | 35329 ft | 386 kts | 230° |
| 2026-05-08 20:28 | 38.71662 | -74.78690 | 35456 ft | 387 kts | 230° |
| 2026-05-08 20:28 | 38.69574 | -74.80861 | 35576 ft | 387 kts | 230° |
| 2026-05-08 20:28 | 38.67484 | -74.83036 | 35692 ft | 387 kts | 230° |
| 2026-05-08 20:28 | 38.65397 | -74.85206 | 35805 ft | 387 kts | 230° |
| 2026-05-08 20:29 | 38.63307 | -74.87379 | 35910 ft | 386 kts | 230° |
| 2026-05-08 20:29 | 38.61222 | -74.89545 | 36021 ft | 386 kts | 230° |
| 2026-05-08 20:29 | 38.57066 | -74.93860 | 36034 ft | 384 kts | 230° |
| 2026-05-08 20:30 | 38.52933 | -74.98160 | 36023 ft | 381 kts | 231° |
| 2026-05-08 20:30 | 38.48968 | -75.02569 | 36020 ft | 380 kts | 232° |
| 2026-05-08 20:31 | 38.44863 | -75.06872 | 36021 ft | 385 kts | 229° |
| 2026-05-08 20:31 | 38.40560 | -75.10955 | 36028 ft | 386 kts | 228° |
| 2026-05-08 20:32 | 38.36248 | -75.15041 | 36030 ft | 386 kts | 228° |
| 2026-05-08 20:32 | 38.31956 | -75.19111 | 36029 ft | 384 kts | 228° |
| 2026-05-08 20:33 | 38.27659 | -75.23187 | 36032 ft | 384 kts | 229° |
| 2026-05-08 20:33 | 38.23370 | -75.27243 | 36033 ft | 385 kts | 229° |
| 2026-05-08 20:34 | 38.19129 | -75.31250 | 36030 ft | 384 kts | 229° |
| 2026-05-08 20:35 | 38.12671 | -75.37325 | 36038 ft | 385 kts | 229° |
| 2026-05-08 20:35 | 38.08378 | -75.41354 | 36044 ft | 384 kts | 229° |
| 2026-05-08 20:36 | 38.04079 | -75.45326 | 36039 ft | 385 kts | 227° |
| 2026-05-08 20:36 | 37.99661 | -75.49198 | 36045 ft | 387 kts | 227° |
| 2026-05-08 20:37 | 37.95243 | -75.53043 | 36048 ft | 381 kts | 227° |
| 2026-05-08 20:37 | 37.90861 | -75.56856 | 36046 ft | 383 kts | 227° |
| 2026-05-08 20:38 | 37.86479 | -75.60663 | 36056 ft | 383 kts | 227° |
| 2026-05-08 20:38 | 37.84177 | -75.62404 | 36044 ft | 399 kts | 220° |
| 2026-05-08 20:38 | 37.81532 | -75.63701 | 36057 ft | 416 kts | 211° |
| 2026-05-08 20:39 | 37.75923 | -75.65628 | 36047 ft | 418 kts | 210° |
| 2026-05-08 20:39 | 37.70326 | -75.67546 | 36056 ft | 414 kts | 210° |
| 2026-05-08 20:40 | 37.64768 | -75.69501 | 36059 ft | 416 kts | 210° |
| 2026-05-08 20:40 | 37.59199 | -75.71450 | 36063 ft | 415 kts | 210° |
| 2026-05-08 20:41 | 37.53623 | -75.73405 | 36060 ft | 416 kts | 210° |
| 2026-05-08 20:41 | 37.48057 | -75.75352 | 36057 ft | 415 kts | 210° |
| 2026-05-08 20:42 | 37.42540 | -75.77275 | 36061 ft | 415 kts | 210° |
| 2026-05-08 20:42 | 37.37002 | -75.79206 | 36063 ft | 415 kts | 210° |
| 2026-05-08 20:43 | 37.31431 | -75.81146 | 36051 ft | 415 kts | 210° |
| 2026-05-08 20:43 | 37.25870 | -75.83072 | 36042 ft | 415 kts | 211° |
| 2026-05-08 20:44 | 37.20335 | -75.84999 | 36051 ft | 415 kts | 211° |
| 2026-05-08 20:44 | 37.14780 | -75.86920 | 36044 ft | 414 kts | 210° |
| 2026-05-08 20:45 | 37.09267 | -75.88911 | 36043 ft | 405 kts | 215° |
| 2026-05-08 20:45 | 37.07559 | -75.89829 | 36043 ft | 393 kts | 221° |
| 2026-05-08 20:45 | 37.04379 | -75.92003 | 36055 ft | 388 kts | 224° |
| 2026-05-08 20:46 | 36.99719 | -75.95310 | 36047 ft | 387 kts | 223° |
| 2026-05-08 20:46 | 36.94968 | -75.98624 | 36048 ft | 389 kts | 223° |
| 2026-05-08 20:47 | 36.90294 | -76.01858 | 36048 ft | 388 kts | 223° |
| 2026-05-08 20:47 | 36.85560 | -76.05141 | 36052 ft | 386 kts | 223° |
| 2026-05-08 20:48 | 36.80892 | -76.08373 | 36047 ft | 388 kts | 223° |
| 2026-05-08 20:48 | 36.76230 | -76.11580 | 36049 ft | 386 kts | 223° |
| 2026-05-08 20:49 | 36.71516 | -76.14834 | 36060 ft | 387 kts | 223° |
| 2026-05-08 20:49 | 36.66808 | -76.18063 | 36059 ft | 385 kts | 223° |
| 2026-05-08 20:50 | 36.62115 | -76.21293 | 36056 ft | 385 kts | 223° |
| 2026-05-08 20:50 | 36.57507 | -76.24465 | 36060 ft | 384 kts | 223° |
| 2026-05-08 20:51 | 36.52788 | -76.27701 | 36057 ft | 384 kts | 223° |
| 2026-05-08 20:51 | 36.48431 | -76.30677 | 36060 ft | 385 kts | 223° |
| 2026-05-08 20:52 | 36.43743 | -76.33885 | 36060 ft | 384 kts | 223° |
| 2026-05-08 20:52 | 36.39053 | -76.37090 | 36054 ft | 384 kts | 223° |
| 2026-05-08 20:53 | 36.34352 | -76.40290 | 36058 ft | 387 kts | 224° |
| 2026-05-08 20:53 | 36.29639 | -76.43503 | 36064 ft | 385 kts | 224° |
| 2026-05-08 20:54 | 36.24923 | -76.46706 | 36061 ft | 387 kts | 223° |
| 2026-05-08 20:54 | 36.20209 | -76.49906 | 36066 ft | 385 kts | 224° |
| 2026-05-08 20:55 | 36.15500 | -76.53102 | 36070 ft | 386 kts | 223° |
| 2026-05-08 20:55 | 36.10816 | -76.56265 | 36065 ft | 386 kts | 223° |
| 2026-05-08 20:56 | 36.06092 | -76.59451 | 36069 ft | 386 kts | 223° |
| 2026-05-08 20:56 | 36.01386 | -76.62633 | 36069 ft | 385 kts | 223° |
| 2026-05-08 20:57 | 35.96686 | -76.65794 | 36071 ft | 386 kts | 223° |
| 2026-05-08 20:57 | 35.91953 | -76.68971 | 36069 ft | 385 kts | 223° |
| 2026-05-08 20:58 | 35.87140 | -76.72014 | 36070 ft | 390 kts | 221° |
| 2026-05-08 20:58 | 35.82281 | -76.74978 | 36067 ft | 389 kts | 221° |
| 2026-05-08 20:59 | 35.77448 | -76.77941 | 36071 ft | 390 kts | 221° |
| 2026-05-08 20:59 | 35.72584 | -76.80912 | 36070 ft | 391 kts | 221° |
| 2026-05-08 21:00 | 35.67708 | -76.83877 | 36070 ft | 390 kts | 221° |
| 2026-05-08 21:00 | 35.62831 | -76.86844 | 36073 ft | 391 kts | 221° |
| 2026-05-08 21:01 | 35.57955 | -76.89801 | 36069 ft | 390 kts | 221° |
| 2026-05-08 21:01 | 35.53098 | -76.92777 | 36070 ft | 390 kts | 221° |
| 2026-05-08 21:02 | 35.48248 | -76.95759 | 36066 ft | 390 kts | 221° |
| 2026-05-08 21:02 | 35.43419 | -76.98719 | 36070 ft | 390 kts | 221° |
| 2026-05-08 21:03 | 35.38563 | -77.01690 | 36074 ft | 390 kts | 221° |
| 2026-05-08 21:03 | 35.33696 | -77.04660 | 36072 ft | 391 kts | 221° |
| 2026-05-08 21:04 | 35.28802 | -77.07647 | 36069 ft | 394 kts | 221° |
| 2026-05-08 21:04 | 35.23910 | -77.10622 | 36069 ft | 392 kts | 221° |
| 2026-05-08 21:05 | 35.19021 | -77.13597 | 36070 ft | 392 kts | 221° |
| 2026-05-08 21:05 | 35.14130 | -77.16568 | 36079 ft | 392 kts | 221° |
| 2026-05-08 21:06 | 35.09236 | -77.19537 | 36079 ft | 392 kts | 221° |
| 2026-05-08 21:06 | 35.04342 | -77.22503 | 36080 ft | 394 kts | 221° |
| 2026-05-08 21:07 | 34.99434 | -77.25469 | 36079 ft | 393 kts | 221° |
| 2026-05-08 21:07 | 34.94536 | -77.28428 | 36079 ft | 393 kts | 221° |
| 2026-05-08 21:08 | 34.89663 | -77.31368 | 36072 ft | 393 kts | 221° |
| 2026-05-08 21:08 | 34.84759 | -77.34321 | 36070 ft | 393 kts | 221° |
| 2026-05-08 21:09 | 34.79855 | -77.37275 | 36068 ft | 394 kts | 221° |
| 2026-05-08 21:09 | 34.74935 | -77.40230 | 36070 ft | 393 kts | 221° |
| 2026-05-08 21:10 | 34.70028 | -77.43176 | 36068 ft | 394 kts | 221° |
| 2026-05-08 21:10 | 34.66127 | -77.45514 | 36072 ft | 394 kts | 221° |
| 2026-05-08 21:11 | 34.61205 | -77.48458 | 36069 ft | 394 kts | 221° |
| 2026-05-08 21:11 | 34.55486 | -77.51879 | 36070 ft | 394 kts | 221° |
| 2026-05-08 21:12 | 34.51232 | -77.54132 | 36069 ft | 411 kts | 212° |
| 2026-05-08 21:12 | 34.48386 | -77.54938 | 36068 ft | 426 kts | 206° |
| 2026-05-08 21:12 | 34.45444 | -77.55571 | 36071 ft | 431 kts | 205° |
| 2026-05-08 21:13 | 34.39576 | -77.56791 | 36077 ft | 428 kts | 206° |
| 2026-05-08 21:13 | 34.33723 | -77.58069 | 36068 ft | 426 kts | 205° |
| 2026-05-08 21:14 | 34.27933 | -77.59341 | 36072 ft | 421 kts | 205° |
| 2026-05-08 21:14 | 34.22158 | -77.60616 | 36069 ft | 420 kts | 205° |
| 2026-05-08 21:15 | 34.16399 | -77.61885 | 36071 ft | 421 kts | 205° |
| 2026-05-08 21:15 | 34.10634 | -77.63150 | 36068 ft | 421 kts | 205° |
| 2026-05-08 21:16 | 34.04864 | -77.64413 | 36073 ft | 421 kts | 205° |
| 2026-05-08 21:16 | 33.99097 | -77.65677 | 36072 ft | 421 kts | 205° |
| 2026-05-08 21:17 | 33.93367 | -77.66929 | 36071 ft | 422 kts | 204° |
| 2026-05-08 21:17 | 33.87582 | -77.68192 | 36070 ft | 422 kts | 204° |
| 2026-05-08 21:18 | 33.81802 | -77.69452 | 36073 ft | 422 kts | 204° |
| 2026-05-08 21:18 | 33.76017 | -77.70712 | 36069 ft | 422 kts | 204° |
| 2026-05-08 21:19 | 33.70241 | -77.71968 | 36073 ft | 422 kts | 204° |
| 2026-05-08 21:19 | 33.64647 | -77.73574 | 36070 ft | 413 kts | 209° |
| 2026-05-08 21:20 | 33.59116 | -77.75406 | 36071 ft | 412 kts | 209° |
| 2026-05-08 21:20 | 33.53612 | -77.77212 | 36075 ft | 413 kts | 209° |
| 2026-05-08 21:21 | 33.48056 | -77.79030 | 36070 ft | 416 kts | 209° |
| 2026-05-08 21:21 | 33.42473 | -77.80848 | 36067 ft | 415 kts | 209° |
| 2026-05-08 21:22 | 33.36903 | -77.82658 | 36069 ft | 414 kts | 209° |
| 2026-05-08 21:22 | 33.31351 | -77.84465 | 36069 ft | 414 kts | 209° |
| 2026-05-08 21:23 | 33.25793 | -77.86271 | 36073 ft | 414 kts | 209° |
| 2026-05-08 21:23 | 33.20236 | -77.88075 | 36069 ft | 414 kts | 209° |
| 2026-05-08 21:24 | 33.14665 | -77.89879 | 36070 ft | 415 kts | 208° |
| 2026-05-08 21:24 | 33.09090 | -77.91677 | 36068 ft | 415 kts | 208° |
| 2026-05-08 21:25 | 33.03551 | -77.93462 | 36072 ft | 415 kts | 209° |
| 2026-05-08 21:25 | 32.98006 | -77.95362 | 36072 ft | 414 kts | 209° |
| 2026-05-08 21:26 | 32.92468 | -77.97267 | 36070 ft | 414 kts | 209° |
| 2026-05-08 21:26 | 32.86920 | -77.99160 | 36069 ft | 415 kts | 209° |
| 2026-05-08 21:27 | 32.81364 | -78.01056 | 36071 ft | 414 kts | 209° |
| 2026-05-08 21:27 | 32.75857 | -78.02936 | 36067 ft | 412 kts | 209° |
| 2026-05-08 21:28 | 32.70375 | -78.04802 | 36056 ft | 413 kts | 209° |
| 2026-05-08 21:28 | 32.64935 | -78.06658 | 36060 ft | 413 kts | 208° |
| 2026-05-08 21:29 | 32.59405 | -78.08534 | 36063 ft | 413 kts | 208° |
| 2026-05-08 21:29 | 32.53878 | -78.10411 | 36071 ft | 413 kts | 208° |
| 2026-05-08 21:30 | 32.48344 | -78.12285 | 36069 ft | 414 kts | 208° |
| 2026-05-08 21:30 | 32.42846 | -78.14146 | 36071 ft | 414 kts | 208° |
| 2026-05-08 21:31 | 32.37308 | -78.16018 | 36068 ft | 414 kts | 208° |
| 2026-05-08 21:31 | 32.31769 | -78.17886 | 36071 ft | 414 kts | 208° |
| 2026-05-08 21:32 | 32.26223 | -78.19752 | 36070 ft | 414 kts | 208° |
| 2026-05-08 21:32 | 32.20681 | -78.21619 | 36065 ft | 414 kts | 208° |
| 2026-05-08 21:33 | 32.15127 | -78.23479 | 36062 ft | 414 kts | 208° |
| 2026-05-08 21:33 | 32.09619 | -78.25333 | 36060 ft | 415 kts | 208° |
| 2026-05-08 21:34 | 32.04037 | -78.27209 | 36063 ft | 415 kts | 208° |
| 2026-05-08 21:34 | 31.98519 | -78.29059 | 36060 ft | 415 kts | 208° |
| 2026-05-08 21:35 | 31.92929 | -78.30925 | 36061 ft | 415 kts | 208° |
| 2026-05-08 21:35 | 31.87402 | -78.32769 | 36055 ft | 415 kts | 208° |
| 2026-05-08 21:36 | 31.81839 | -78.34625 | 36057 ft | 415 kts | 208° |
| 2026-05-08 21:36 | 31.76273 | -78.36479 | 36054 ft | 416 kts | 208° |
| 2026-05-08 21:37 | 31.70709 | -78.38328 | 36046 ft | 416 kts | 208° |
| 2026-05-08 21:37 | 31.65141 | -78.40181 | 36046 ft | 416 kts | 208° |
| 2026-05-08 21:38 | 31.59567 | -78.42032 | 36054 ft | 416 kts | 208° |
| 2026-05-08 21:38 | 31.53991 | -78.43880 | 36052 ft | 417 kts | 207° |
| 2026-05-08 21:39 | 31.48399 | -78.45711 | 36047 ft | 417 kts | 207° |
| 2026-05-08 21:39 | 31.42837 | -78.47510 | 36050 ft | 417 kts | 207° |
| 2026-05-08 21:40 | 31.37248 | -78.49323 | 36046 ft | 417 kts | 207° |
| 2026-05-08 21:40 | 31.31658 | -78.51137 | 36047 ft | 417 kts | 207° |
| 2026-05-08 21:41 | 31.23256 | -78.53855 | 36044 ft | 418 kts | 207° |
| 2026-05-08 21:41 | 31.17652 | -78.55660 | 36050 ft | 418 kts | 207° |
| 2026-05-08 21:42 | 31.12025 | -78.57461 | 36047 ft | 419 kts | 206° |
| 2026-05-08 21:42 | 31.06441 | -78.59255 | 36042 ft | 419 kts | 206° |
| 2026-05-08 21:43 | 31.00817 | -78.61068 | 36048 ft | 419 kts | 206° |
| 2026-05-08 21:43 | 30.95185 | -78.62874 | 36053 ft | 420 kts | 206° |
| 2026-05-08 21:44 | 30.89544 | -78.64685 | 36048 ft | 420 kts | 206° |
| 2026-05-08 21:44 | 30.83901 | -78.66482 | 36053 ft | 420 kts | 206° |
| 2026-05-08 21:45 | 30.78256 | -78.68287 | 36044 ft | 421 kts | 206° |
| 2026-05-08 21:45 | 30.72600 | -78.70099 | 36052 ft | 422 kts | 206° |
| 2026-05-08 21:46 | 30.66964 | -78.71902 | 36043 ft | 423 kts | 206° |
| 2026-05-08 21:46 | 30.61289 | -78.73718 | 36036 ft | 423 kts | 206° |
| 2026-05-08 21:47 | 30.55746 | -78.75484 | 36038 ft | 423 kts | 206° |
| 2026-05-08 21:47 | 30.50054 | -78.77304 | 36038 ft | 423 kts | 206° |
| 2026-05-08 21:48 | 30.44367 | -78.79103 | 36038 ft | 425 kts | 206° |
| 2026-05-08 21:48 | 30.38658 | -78.80913 | 36026 ft | 424 kts | 206° |
| 2026-05-08 21:49 | 30.32973 | -78.82724 | 36006 ft | 424 kts | 206° |
| 2026-05-08 21:49 | 30.27312 | -78.84522 | 36000 ft | 425 kts | 205° |
| 2026-05-08 21:50 | 30.21607 | -78.86315 | 36000 ft | 425 kts | 205° |
| 2026-05-08 21:50 | 30.15905 | -78.88112 | 36000 ft | 425 kts | 205° |
| 2026-05-08 21:51 | 30.10201 | -78.89909 | 35999 ft | 425 kts | 205° |
| 2026-05-08 21:51 | 30.04484 | -78.91707 | 35999 ft | 425 kts | 205° |
| 2026-05-08 21:52 | 29.98774 | -78.93504 | 35988 ft | 425 kts | 206° |
| 2026-05-08 21:52 | 29.93079 | -78.95318 | 35994 ft | 429 kts | 205° |
| 2026-05-08 21:53 | 29.87313 | -78.97135 | 35989 ft | 429 kts | 204° |
| 2026-05-08 21:53 | 29.81545 | -78.98932 | 35989 ft | 430 kts | 203° |
| 2026-05-08 21:54 | 29.75583 | -79.00181 | 35980 ft | 437 kts | 198° |
| 2026-05-08 21:54 | 29.69563 | -79.01269 | 35980 ft | 437 kts | 198° |
| 2026-05-08 21:55 | 29.63536 | -79.02369 | 35981 ft | 438 kts | 198° |
| 2026-05-08 21:56 | 29.54498 | -79.04036 | 35981 ft | 439 kts | 198° |
| 2026-05-08 21:56 | 29.48461 | -79.05137 | 35980 ft | 439 kts | 198° |
| 2026-05-08 21:57 | 29.42430 | -79.06251 | 35971 ft | 439 kts | 198° |
| 2026-05-08 21:57 | 29.36430 | -79.07362 | 35971 ft | 439 kts | 198° |
| 2026-05-08 21:58 | 29.30389 | -79.08464 | 35963 ft | 440 kts | 198° |
| 2026-05-08 21:58 | 29.24344 | -79.09569 | 35961 ft | 440 kts | 198° |
| 2026-05-08 21:59 | 29.18296 | -79.10675 | 35960 ft | 440 kts | 198° |
| 2026-05-08 21:59 | 29.12284 | -79.11775 | 35960 ft | 440 kts | 198° |
| 2026-05-08 22:00 | 29.06235 | -79.12886 | 35961 ft | 440 kts | 198° |
| 2026-05-08 22:00 | 29.00176 | -79.13991 | 35960 ft | 441 kts | 198° |
| 2026-05-08 22:01 | 28.95135 | -79.14919 | 35960 ft | 441 kts | 198° |
| 2026-05-08 22:01 | 28.89072 | -79.16026 | 35961 ft | 441 kts | 198° |
| 2026-05-08 22:02 | 28.83004 | -79.17122 | 35960 ft | 441 kts | 197° |
| 2026-05-08 22:02 | 28.76937 | -79.18227 | 35960 ft | 442 kts | 198° |
| 2026-05-08 22:03 | 28.70865 | -79.19329 | 35960 ft | 442 kts | 197° |
| 2026-05-08 22:03 | 28.64791 | -79.20428 | 35960 ft | 442 kts | 197° |
| 2026-05-08 22:04 | 28.58714 | -79.21529 | 35955 ft | 443 kts | 197° |
| 2026-05-08 22:04 | 28.52789 | -79.22599 | 35951 ft | 443 kts | 197° |
| 2026-05-08 22:05 | 28.46687 | -79.23700 | 35950 ft | 444 kts | 197° |
| 2026-05-08 22:05 | 28.40629 | -79.24794 | 35950 ft | 444 kts | 197° |
| 2026-05-08 22:06 | 28.34532 | -79.25893 | 35951 ft | 444 kts | 197° |
| 2026-05-08 22:06 | 28.28587 | -79.27496 | 35952 ft | 436 kts | 204° |
| 2026-05-08 22:07 | 28.22749 | -79.29410 | 35966 ft | 437 kts | 204° |
| 2026-05-08 22:07 | 28.16910 | -79.31313 | 35969 ft | 437 kts | 204° |
| 2026-05-08 22:08 | 28.11404 | -79.33099 | 35970 ft | 437 kts | 204° |
| 2026-05-08 22:08 | 28.05661 | -79.34957 | 35970 ft | 437 kts | 203° |
| 2026-05-08 22:09 | 27.99811 | -79.36853 | 35970 ft | 437 kts | 204° |
| 2026-05-08 22:09 | 27.93940 | -79.38754 | 35974 ft | 440 kts | 203° |
| 2026-05-08 22:10 | 27.88060 | -79.40648 | 35979 ft | 438 kts | 203° |
| 2026-05-08 22:10 | 27.82189 | -79.42542 | 35981 ft | 439 kts | 203° |
| 2026-05-08 22:10 | 27.79290 | -79.43477 | 35863 ft | 439 kts | 203° |
| 2026-05-08 22:11 | 27.76334 | -79.44433 | 34929 ft | 446 kts | 202° |
| 2026-05-08 22:11 | 27.73318 | -79.45407 | 33869 ft | 454 kts | 202° |
| 2026-05-08 22:11 | 27.70276 | -79.46383 | 33181 ft | 453 kts | 202° |
| 2026-05-08 22:11 | 27.67255 | -79.47347 | 32587 ft | 449 kts | 202° |
| 2026-05-08 22:12 | 27.64259 | -79.48305 | 32033 ft | 445 kts | 202° |
| 2026-05-08 22:12 | 27.61407 | -79.49218 | 31506 ft | 440 kts | 202° |
| 2026-05-08 22:12 | 27.58472 | -79.50158 | 30964 ft | 436 kts | 202° |
| 2026-05-08 22:12 | 27.55575 | -79.51086 | 30450 ft | 431 kts | 202° |
| 2026-05-08 22:13 | 27.52708 | -79.52009 | 29941 ft | 426 kts | 202° |
| 2026-05-08 22:13 | 27.49876 | -79.52921 | 29418 ft | 421 kts | 202° |
| 2026-05-08 22:13 | 27.47105 | -79.53812 | 28902 ft | 417 kts | 202° |
| 2026-05-08 22:13 | 27.44330 | -79.54699 | 28385 ft | 413 kts | 202° |
| 2026-05-08 22:14 | 27.41582 | -79.55574 | 27874 ft | 408 kts | 202° |
| 2026-05-08 22:14 | 27.38862 | -79.56441 | 27382 ft | 404 kts | 202° |
| 2026-05-08 22:14 | 27.36162 | -79.57291 | 26876 ft | 400 kts | 201° |
| 2026-05-08 22:14 | 27.33484 | -79.58131 | 26352 ft | 397 kts | 201° |
| 2026-05-08 22:15 | 27.30836 | -79.58964 | 25862 ft | 393 kts | 201° |
| 2026-05-08 22:15 | 27.28220 | -79.59785 | 25374 ft | 389 kts | 201° |
| 2026-05-08 22:15 | 27.25622 | -79.60602 | 24890 ft | 386 kts | 201° |
| 2026-05-08 22:15 | 27.23045 | -79.61414 | 24395 ft | 383 kts | 201° |
| 2026-05-08 22:16 | 27.20485 | -79.62218 | 23903 ft | 381 kts | 201° |
| 2026-05-08 22:16 | 27.17971 | -79.63010 | 23419 ft | 378 kts | 201° |
| 2026-05-08 22:16 | 27.15448 | -79.63818 | 22944 ft | 375 kts | 201° |
| 2026-05-08 22:16 | 27.12946 | -79.64623 | 22481 ft | 372 kts | 201° |
| 2026-05-08 22:17 | 27.10462 | -79.65421 | 22004 ft | 370 kts | 201° |
| 2026-05-08 22:17 | 27.08070 | -79.66188 | 21528 ft | 368 kts | 201° |
| 2026-05-08 22:17 | 27.05615 | -79.66974 | 21053 ft | 366 kts | 201° |
| 2026-05-08 22:17 | 27.03175 | -79.67756 | 20592 ft | 364 kts | 200° |
| 2026-05-08 22:18 | 27.00746 | -79.68533 | 20137 ft | 362 kts | 200° |
| 2026-05-08 22:18 | 26.98336 | -79.69304 | 19674 ft | 359 kts | 200° |
| 2026-05-08 22:18 | 26.95935 | -79.70071 | 19208 ft | 358 kts | 200° |
| 2026-05-08 22:18 | 26.93544 | -79.70833 | 18738 ft | 356 kts | 200° |
| 2026-05-08 22:19 | 26.91168 | -79.71590 | 18264 ft | 354 kts | 200° |
| 2026-05-08 22:19 | 26.88803 | -79.72344 | 17805 ft | 353 kts | 200° |
| 2026-05-08 22:19 | 26.86448 | -79.73095 | 17355 ft | 351 kts | 199° |
| 2026-05-08 22:19 | 26.84108 | -79.73840 | 16899 ft | 349 kts | 199° |
| 2026-05-08 22:20 | 26.81777 | -79.74583 | 16440 ft | 347 kts | 199° |
| 2026-05-08 22:20 | 26.79464 | -79.75318 | 15999 ft | 345 kts | 199° |
| 2026-05-08 22:20 | 26.77191 | -79.76035 | 15572 ft | 342 kts | 198° |
| 2026-05-08 22:20 | 26.74908 | -79.76755 | 15147 ft | 339 kts | 198° |
| 2026-05-08 22:21 | 26.72646 | -79.77468 | 14714 ft | 337 kts | 198° |
| 2026-05-08 22:21 | 26.70393 | -79.78183 | 14280 ft | 335 kts | 199° |
| 2026-05-08 22:21 | 26.68197 | -79.79023 | 13840 ft | 332 kts | 201° |
| 2026-05-08 22:21 | 26.66033 | -79.79908 | 13411 ft | 330 kts | 201° |
| 2026-05-08 22:22 | 26.63882 | -79.80790 | 12980 ft | 328 kts | 201° |
| 2026-05-08 22:22 | 26.61749 | -79.81665 | 12558 ft | 326 kts | 201° |
| 2026-05-08 22:22 | 26.59622 | -79.82534 | 12138 ft | 324 kts | 201° |
| 2026-05-08 22:22 | 26.57513 | -79.83395 | 11718 ft | 322 kts | 200° |
| 2026-05-08 22:23 | 26.55416 | -79.84263 | 11295 ft | 320 kts | 202° |
| 2026-05-08 22:23 | 26.53384 | -79.85199 | 11023 ft | 311 kts | 203° |
| 2026-05-08 22:23 | 26.51447 | -79.86112 | 10813 ft | 301 kts | 203° |
| 2026-05-08 22:23 | 26.49540 | -79.87011 | 10490 ft | 296 kts | 203° |
| 2026-05-08 22:24 | 26.47650 | -79.87901 | 10076 ft | 294 kts | 203° |
| 2026-05-08 22:24 | 26.45766 | -79.88787 | 9634 ft | 294 kts | 203° |
| 2026-05-08 22:24 | 26.43887 | -79.89669 | 9210 ft | 293 kts | 203° |
| 2026-05-08 22:24 | 26.42014 | -79.90549 | 8801 ft | 291 kts | 203° |
| 2026-05-08 22:25 | 26.40156 | -79.91422 | 8406 ft | 289 kts | 203° |
| 2026-05-08 22:25 | 26.38318 | -79.92313 | 8023 ft | 287 kts | 206° |
| 2026-05-08 22:25 | 26.36576 | -79.93381 | 7746 ft | 283 kts | 210° |
| 2026-05-08 22:25 | 26.34887 | -79.94472 | 7549 ft | 277 kts | 210° |
| 2026-05-08 22:26 | 26.33243 | -79.95536 | 7370 ft | 270 kts | 210° |
| 2026-05-08 22:26 | 26.31674 | -79.96547 | 7196 ft | 264 kts | 210° |
| 2026-05-08 22:26 | 26.30096 | -79.97563 | 7021 ft | 261 kts | 210° |
| 2026-05-08 22:26 | 26.28519 | -79.98577 | 6839 ft | 261 kts | 210° |
| 2026-05-08 22:27 | 26.26948 | -79.99585 | 6659 ft | 260 kts | 210° |
| 2026-05-08 22:27 | 26.25373 | -80.00597 | 6473 ft | 260 kts | 210° |
| 2026-05-08 22:27 | 26.23826 | -80.01592 | 6291 ft | 260 kts | 210° |
| 2026-05-08 22:27 | 26.22264 | -80.02597 | 6105 ft | 259 kts | 210° |
| 2026-05-08 22:28 | 26.20707 | -80.03597 | 5921 ft | 258 kts | 210° |
| 2026-05-08 22:28 | 26.19166 | -80.04612 | 5736 ft | 257 kts | 214° |
| 2026-05-08 22:28 | 26.17889 | -80.05986 | 5549 ft | 257 kts | 237° |
| 2026-05-08 22:28 | 26.17170 | -80.07796 | 5371 ft | 256 kts | 251° |
| 2026-05-08 22:29 | 26.16632 | -80.09684 | 5189 ft | 255 kts | 252° |
| 2026-05-08 22:29 | 26.16097 | -80.11563 | 5009 ft | 255 kts | 252° |
| 2026-05-08 22:29 | 26.15551 | -80.13438 | 4835 ft | 254 kts | 251° |
| 2026-05-08 22:29 | 26.15058 | -80.15324 | 4639 ft | 253 kts | 260° |
| 2026-05-08 22:30 | 26.14958 | -80.17276 | 4456 ft | 253 kts | 270° |
| 2026-05-08 22:30 | 26.14984 | -80.19234 | 4273 ft | 253 kts | 271° |
| 2026-05-08 22:30 | 26.15011 | -80.21185 | 4095 ft | 252 kts | 270° |
| 2026-05-08 22:30 | 26.15031 | -80.23147 | 3937 ft | 263 kts | 270° |
| 2026-05-08 22:31 | 26.15046 | -80.25255 | 3809 ft | 275 kts | 270° |
| 2026-05-08 22:31 | 26.15057 | -80.27360 | 3664 ft | 267 kts | 270° |
| 2026-05-08 22:31 | 26.15067 | -80.29436 | 3535 ft | 269 kts | 270° |
| 2026-05-08 22:31 | 26.15077 | -80.31518 | 3411 ft | 269 kts | 270° |
| 2026-05-08 22:32 | 26.15087 | -80.33597 | 3286 ft | 269 kts | 270° |
| 2026-05-08 22:32 | 26.15082 | -80.35646 | 3159 ft | 268 kts | 266° |
| 2026-05-08 22:32 | 26.14601 | -80.37634 | 3026 ft | 268 kts | 242° |
| 2026-05-08 22:32 | 26.13422 | -80.39212 | 2967 ft | 267 kts | 217° |
| 2026-05-08 22:33 | 26.11785 | -80.40111 | 2972 ft | 258 kts | 193° |
| 2026-05-08 22:33 | 26.10067 | -80.40214 | 2976 ft | 240 kts | 171° |
| 2026-05-08 22:33 | 26.08527 | -80.39642 | 2980 ft | 233 kts | 150° |
| 2026-05-08 22:33 | 26.07273 | -80.38508 | 2989 ft | 233 kts | 129° |